createdAt,value
2022-08-31T00:00:09.606Z,101536.53
2022-08-31T00:02:54.966Z,101535.19
2022-08-31T00:05:23.314Z,101539.22
2022-08-31T00:07:51.703Z,101536.00
2022-08-31T00:10:31.739Z,101534.50
2022-08-31T00:13:07.076Z,101536.50
2022-08-31T00:15:35.791Z,101526.72
2022-08-31T00:18:03.921Z,101530.59
2022-08-31T00:20:33.859Z,101531.72
2022-08-31T00:23:02.998Z,101533.59
2022-08-31T00:25:31.275Z,101527.84
2022-08-31T00:27:58.997Z,101528.34
2022-08-31T00:30:28.368Z,101527.50
2022-08-31T00:32:58.166Z,101528.00
2022-08-31T00:35:27.600Z,101534.53
2022-08-31T00:37:55.364Z,101533.84
2022-08-31T00:40:23.594Z,101536.84
2022-08-31T00:42:51.828Z,101529.13
2022-08-31T00:45:20.001Z,101538.69
2022-08-31T00:47:49.503Z,101533.63
2022-08-31T00:50:19.089Z,101550.06
2022-08-31T00:52:52.047Z,101539.63
2022-08-31T00:55:22.766Z,101536.25
2022-08-31T00:57:54.200Z,101537.44
2022-08-31T01:00:27.213Z,101540.44
2022-08-31T01:02:57.324Z,101533.72
2022-08-31T01:05:25.465Z,101536.41
2022-08-31T01:07:54.297Z,101544.09
2022-08-31T01:10:24.632Z,101530.28
2022-08-31T01:12:54.725Z,101535.97
2022-08-31T01:15:24.852Z,101536.47
2022-08-31T01:17:55.165Z,101536.75
2022-08-31T01:20:30.053Z,101543.44
2022-08-31T01:23:10.778Z,101546.63
2022-08-31T01:25:40.440Z,101546.09
2022-08-31T01:28:10.104Z,101543.03
2022-08-31T01:30:40.732Z,101553.09
2022-08-31T01:33:11.364Z,101545.47
2022-08-31T01:35:40.299Z,101546.63
2022-08-31T01:38:10.883Z,101543.56
2022-08-31T01:40:47.531Z,101551.41
2022-08-31T01:43:15.244Z,101550.88
2022-08-31T01:45:42.990Z,101546.66
2022-08-31T01:48:10.819Z,101542.44
2022-08-31T01:50:38.877Z,101551.78
2022-08-31T01:53:06.756Z,101553.78
2022-08-31T01:55:36.580Z,101554.41
2022-08-31T01:58:05.157Z,101554.00
2022-08-31T02:00:52.022Z,101547.81
2022-08-31T02:03:19.952Z,101553.63
2022-08-31T02:05:47.943Z,101554.13
2022-08-31T02:08:15.710Z,101554.25
2022-08-31T02:10:45.819Z,101553.72
2022-08-31T02:13:14.469Z,101560.06
2022-08-31T02:15:42.301Z,101556.84
2022-08-31T02:18:10.034Z,101556.16
2022-08-31T02:20:40.283Z,101552.78
2022-08-31T02:23:08.036Z,101562.84
2022-08-31T02:25:35.860Z,101565.81
2022-08-31T02:28:06.307Z,101557.22
2022-08-31T02:30:34.660Z,101560.03
2022-08-31T02:33:02.688Z,101562.88
2022-08-31T02:35:30.557Z,101556.00
2022-08-31T02:37:58.304Z,101554.16
2022-08-31T02:40:26.508Z,101558.84
2022-08-31T02:42:55.078Z,101544.84
2022-08-31T02:45:28.084Z,101551.22
2022-08-31T02:48:02.680Z,101558.56
2022-08-31T02:50:40.043Z,101555.19
2022-08-31T02:53:08.487Z,101548.16
2022-08-31T02:55:36.641Z,101544.06
2022-08-31T02:58:05.434Z,101549.75
2022-08-31T03:00:35.048Z,101550.75
2022-08-31T03:03:03.540Z,101540.03
2022-08-31T03:05:31.933Z,101547.34
2022-08-31T03:07:59.860Z,101547.66
2022-08-31T03:10:27.908Z,101549.50
2022-08-31T03:12:56.733Z,101545.28
2022-08-31T03:15:26.927Z,101547.22
2022-08-31T03:17:56.088Z,101545.56
2022-08-31T03:20:27.115Z,101550.06
2022-08-31T03:22:55.444Z,101555.56
2022-08-31T03:25:24.307Z,101551.19
2022-08-31T03:27:52.423Z,101553.19
2022-08-31T03:30:22.524Z,101545.44
2022-08-31T03:33:02.984Z,101554.78
2022-08-31T03:35:33.604Z,101556.91
2022-08-31T03:38:03.366Z,101552.53
2022-08-31T03:40:31.678Z,101549.31
2022-08-31T03:42:59.513Z,101544.25
2022-08-31T03:45:28.915Z,101549.22
2022-08-31T03:47:57.183Z,101553.84
2022-08-31T03:50:27.969Z,101548.78
2022-08-31T03:53:05.141Z,101553.47
2022-08-31T03:55:33.695Z,101549.22
2022-08-31T03:58:01.988Z,101546.84
2022-08-31T04:00:31.561Z,101556.03
2022-08-31T04:03:04.332Z,101556.16
2022-08-31T04:05:36.024Z,101558.44
2022-08-31T04:08:22.977Z,101556.91
2022-08-31T04:11:12.333Z,101560.03
2022-08-31T04:13:58.505Z,101569.22
2022-08-31T04:16:46.248Z,101563.28
2022-08-31T04:19:38.049Z,101569.91
2022-08-31T04:22:27.672Z,101573.00
2022-08-31T04:25:18.186Z,101566.97
2022-08-31T04:27:50.304Z,101570.63
2022-08-31T04:30:20.885Z,101571.22
2022-08-31T04:32:48.711Z,101567.97
2022-08-31T04:35:17.195Z,101571.78
2022-08-31T04:37:47.098Z,101573.78
2022-08-31T04:40:19.705Z,101569.38
2022-08-31T04:42:48.722Z,101572.50
2022-08-31T04:45:18.920Z,101578.69
2022-08-31T04:47:46.701Z,101572.78
2022-08-31T04:50:16.515Z,101582.06
2022-08-31T04:53:09.550Z,101571.50
2022-08-31T04:55:41.028Z,101575.19
2022-08-31T04:58:10.340Z,101582.38
2022-08-31T05:00:38.409Z,101579.97
2022-08-31T05:03:24.517Z,101583.63
2022-08-31T05:05:56.845Z,101586.44
2022-08-31T05:08:26.069Z,101589.13
2022-08-31T05:10:54.992Z,101588.44
2022-08-31T05:13:22.708Z,101584.16
2022-08-31T05:15:54.678Z,101590.34
2022-08-31T05:18:22.880Z,101587.69
2022-08-31T05:20:56.703Z,101589.50
2022-08-31T05:23:25.967Z,101593.19
2022-08-31T05:25:53.668Z,101588.66
2022-08-31T05:28:23.519Z,101594.03
2022-08-31T05:30:51.480Z,101596.84
2022-08-31T05:33:36.791Z,101593.34
2022-08-31T05:36:05.801Z,101594.31
2022-08-31T05:38:35.820Z,101593.59
2022-08-31T05:41:06.044Z,101593.75
2022-08-31T05:43:35.002Z,101589.22
2022-08-31T05:46:06.701Z,101594.72
2022-08-31T05:48:38.101Z,101599.94
2022-08-31T05:51:12.271Z,101609.09
2022-08-31T05:53:43.069Z,101601.19
2022-08-31T05:56:14.734Z,101598.53
2022-08-31T05:58:46.277Z,101599.50
2022-08-31T06:01:16.361Z,101602.19
2022-08-31T06:04:04.917Z,101606.56
2022-08-31T06:06:33.245Z,101601.34
2022-08-31T06:09:02.257Z,101608.38
2022-08-31T06:11:34.190Z,101610.06
2022-08-31T06:14:04.203Z,101610.06
2022-08-31T06:16:33.399Z,101609.09
2022-08-31T06:19:03.367Z,101607.28
2022-08-31T06:21:34.479Z,101609.81
2022-08-31T06:24:06.320Z,101615.75
2022-08-31T06:26:37.022Z,101615.44
2022-08-31T06:29:09.846Z,101617.75
2022-08-31T06:31:47.041Z,101617.19
2022-08-31T06:34:19.985Z,101615.22
2022-08-31T06:37:06.464Z,101622.78
2022-08-31T06:39:54.763Z,101624.06
2022-08-31T06:42:39.665Z,101622.19
2022-08-31T06:45:26.664Z,101625.53
2022-08-31T06:48:00.704Z,101615.72
2022-08-31T06:50:28.838Z,101627.25
2022-08-31T06:52:57.213Z,101624.75
2022-08-31T06:55:45.325Z,101626.94
2022-08-31T06:58:31.496Z,101624.59
2022-08-31T07:01:26.350Z,101620.16
2022-08-31T07:04:22.175Z,101624.47
2022-08-31T07:06:49.970Z,101624.41
2022-08-31T07:09:18.447Z,101628.00
2022-08-31T07:11:50.093Z,101624.69
2022-08-31T07:14:21.912Z,101625.94
2022-08-31T07:16:51.756Z,101625.50
2022-08-31T07:19:20.369Z,101637.31
2022-08-31T07:21:49.861Z,101645.91
2022-08-31T07:24:23.056Z,101648.97
2022-08-31T07:26:55.106Z,101648.34
2022-08-31T07:29:32.985Z,101646.34
2022-08-31T07:32:00.928Z,101648.56
2022-08-31T07:34:33.460Z,101651.09
2022-08-31T07:37:37.057Z,101657.69
2022-08-31T07:40:24.303Z,101662.44
2022-08-31T07:42:55.202Z,101669.34
2022-08-31T07:45:29.429Z,101658.97
2022-08-31T07:48:01.018Z,101656.66
2022-08-31T07:50:46.711Z,101657.88
2022-08-31T07:53:43.119Z,101654.91
2022-08-31T07:56:34.185Z,101660.34
2022-08-31T07:59:15.091Z,101672.00
2022-08-31T08:01:45.488Z,101665.81
2022-08-31T08:04:18.450Z,101660.03
2022-08-31T08:07:21.656Z,101667.50
2022-08-31T08:09:55.114Z,101671.25
2022-08-31T08:12:41.731Z,101675.16
2022-08-31T08:15:17.337Z,101673.47
2022-08-31T08:18:15.157Z,101677.91
2022-08-31T08:20:49.314Z,101680.78
2022-08-31T08:23:25.863Z,101673.03
2022-08-31T08:26:21.064Z,101677.28
2022-08-31T08:29:08.962Z,101678.47
2022-08-31T08:31:52.232Z,101679.16
2022-08-31T08:34:21.303Z,101679.88
2022-08-31T08:36:57.746Z,101678.00
2022-08-31T08:39:25.442Z,101683.25
2022-08-31T08:42:03.956Z,101677.84
2022-08-31T08:44:34.113Z,101683.25
2022-08-31T08:47:06.545Z,101679.69
2022-08-31T08:49:48.813Z,101675.78
2022-08-31T08:52:26.828Z,101682.53
2022-08-31T08:54:57.412Z,101675.38
2022-08-31T08:57:28.247Z,101685.09
2022-08-31T09:00:04.147Z,101678.06
2022-08-31T09:02:38.883Z,101683.75
2022-08-31T09:05:45.519Z,101672.72
2022-08-31T09:08:54.723Z,101669.16
2022-08-31T09:11:29.380Z,101672.94
2022-08-31T09:14:06.272Z,101672.19
2022-08-31T09:16:44.647Z,101670.84
2022-08-31T09:19:17.105Z,101667.75
2022-08-31T09:21:47.140Z,101673.75
2022-08-31T09:24:20.076Z,101666.97
2022-08-31T09:27:17.837Z,101665.22
2022-08-31T09:29:47.213Z,101676.44
2022-08-31T09:32:23.079Z,101666.19
2022-08-31T09:35:01.087Z,101668.47
2022-08-31T09:37:33.245Z,101658.88
2022-08-31T09:40:16.835Z,101665.41
2022-08-31T09:43:03.981Z,101666.38
2022-08-31T09:45:38.763Z,101655.59
2022-08-31T09:48:10.397Z,101654.66
2022-08-31T09:50:45.002Z,101660.66
2022-08-31T09:53:34.769Z,101664.28
2022-08-31T09:56:14.378Z,101657.47
2022-08-31T09:58:51.704Z,101655.97
2022-08-31T10:01:25.625Z,101657.75
2022-08-31T10:04:09.884Z,101651.31
2022-08-31T10:06:47.133Z,101654.38
2022-08-31T10:09:28.724Z,101646.81
2022-08-31T10:12:01.726Z,101650.84
2022-08-31T10:14:36.782Z,101653.69
2022-08-31T10:17:13.032Z,101652.16
2022-08-31T10:19:52.945Z,101651.31
2022-08-31T10:22:30.616Z,101648.63
2022-08-31T10:25:07.089Z,101652.03
2022-08-31T10:27:42.299Z,101641.84
2022-08-31T10:30:27.476Z,101643.13
2022-08-31T10:33:01.896Z,101642.91
2022-08-31T10:35:36.318Z,101644.44
2022-08-31T10:38:21.103Z,101650.69
2022-08-31T10:40:52.367Z,101644.97
2022-08-31T10:43:23.747Z,101649.28
2022-08-31T10:45:54.308Z,101646.31
2022-08-31T10:48:24.565Z,101632.53
2022-08-31T10:51:09.145Z,101647.19
2022-08-31T10:53:55.825Z,101644.28
2022-08-31T10:56:37.269Z,101639.75
2022-08-31T10:59:14.991Z,101641.00
2022-08-31T11:01:52.547Z,101645.13
2022-08-31T11:04:42.468Z,101656.81
2022-08-31T11:07:20.341Z,101655.91
2022-08-31T11:09:57.726Z,101655.41
2022-08-31T11:12:30.697Z,101648.00
2022-08-31T11:15:25.587Z,101653.00
2022-08-31T11:18:15.304Z,101656.16
2022-08-31T11:21:04.568Z,101644.94
2022-08-31T11:23:43.813Z,101650.09
2022-08-31T11:26:42.020Z,101644.66
2022-08-31T11:29:24.121Z,101633.81
2022-08-31T11:31:55.064Z,101641.88
2022-08-31T11:34:26.649Z,101637.31
2022-08-31T11:36:56.630Z,101644.88
2022-08-31T11:39:36.858Z,101641.97
2022-08-31T11:42:12.332Z,101629.91
2022-08-31T11:45:02.188Z,101632.34
2022-08-31T11:47:37.176Z,101631.25
2022-08-31T11:50:11.716Z,101635.81
2022-08-31T11:52:45.187Z,101631.25
2022-08-31T11:55:23.775Z,101624.38
2022-08-31T11:58:21.328Z,101626.09
2022-08-31T12:00:59.172Z,101630.56
2022-08-31T12:03:42.058Z,101631.44
2022-08-31T12:06:12.917Z,101632.66
2022-08-31T12:08:52.230Z,101627.88
2022-08-31T12:11:31.794Z,101622.28
2022-08-31T12:14:09.368Z,101619.44
2022-08-31T12:16:57.765Z,101618.78
2022-08-31T12:20:01.343Z,101605.50
2022-08-31T12:23:11.711Z,101606.00
2022-08-31T12:26:00.604Z,101614.59
2022-08-31T12:28:39.426Z,101607.09
2022-08-31T12:31:14.853Z,101601.03
2022-08-31T12:33:50.743Z,101609.16
2022-08-31T12:36:20.870Z,101599.63
2022-08-31T12:39:06.192Z,101598.00
2022-08-31T12:41:34.891Z,101603.47
2022-08-31T12:44:03.890Z,101600.16
2022-08-31T12:46:45.895Z,101601.44
2022-08-31T12:49:21.687Z,101604.50
2022-08-31T12:51:52.471Z,101603.41
2022-08-31T12:54:42.580Z,101598.63
2022-08-31T12:57:25.767Z,101594.47
2022-08-31T13:00:04.260Z,101580.94
2022-08-31T13:02:36.480Z,101581.63
2022-08-31T13:05:05.341Z,101585.59
2022-08-31T13:07:35.822Z,101582.03
2022-08-31T13:10:07.143Z,101585.78
2022-08-31T13:12:35.517Z,101579.53
2022-08-31T13:15:03.407Z,101578.25
2022-08-31T13:17:38.046Z,101579.06
2022-08-31T13:20:08.678Z,101576.38
2022-08-31T13:22:41.170Z,101569.25
2022-08-31T13:25:16.641Z,101574.69
2022-08-31T13:27:49.572Z,101567.78
2022-08-31T13:30:22.374Z,101566.78
2022-08-31T13:32:55.348Z,101569.72
2022-08-31T13:35:26.980Z,101559.53
2022-08-31T13:38:05.076Z,101569.63
2022-08-31T13:40:37.194Z,101561.13
2022-08-31T13:43:06.978Z,101559.69
2022-08-31T13:45:40.483Z,101553.00
2022-08-31T13:48:15.931Z,101555.50
2022-08-31T13:50:52.595Z,101559.66
2022-08-31T13:53:37.954Z,101554.06
2022-08-31T13:56:42.947Z,101547.56
2022-08-31T13:59:17.582Z,101538.38
2022-08-31T14:01:48.449Z,101544.91
2022-08-31T14:04:43.696Z,101538.78
2022-08-31T14:07:21.472Z,101538.81
2022-08-31T14:09:52.459Z,101537.38
2022-08-31T14:12:34.851Z,101542.81
2022-08-31T14:15:19.772Z,101532.34
2022-08-31T14:21:09.979Z,101535.78
2022-08-31T14:23:35.321Z,101533.28
2022-08-31T14:26:06.716Z,101529.72
2022-08-31T14:28:38.648Z,101529.28
2022-08-31T14:31:15.356Z,101528.03
2022-08-31T14:33:44.502Z,101529.69
2022-08-31T14:36:16.295Z,101526.78
2022-08-31T14:38:46.039Z,101526.38
2022-08-31T14:41:20.500Z,101514.66
2022-08-31T14:43:48.587Z,101519.47
2022-08-31T14:46:26.145Z,101507.75
2022-08-31T14:48:53.901Z,101503.97
2022-08-31T14:51:23.980Z,101498.31
2022-08-31T14:53:56.899Z,101501.88
2022-08-31T14:56:30.466Z,101496.63
2022-08-31T14:58:59.596Z,101505.22
2022-08-31T15:01:30.037Z,101506.06
2022-08-31T15:03:58.137Z,101509.63
2022-08-31T15:06:27.515Z,101511.28
2022-08-31T15:08:55.555Z,101514.03
2022-08-31T15:11:24.076Z,101510.25
2022-08-31T15:13:53.397Z,101502.06
2022-08-31T15:16:24.004Z,101505.81
2022-08-31T15:18:56.050Z,101506.44
2022-08-31T15:21:25.601Z,101497.44
2022-08-31T15:23:54.964Z,101492.41
2022-08-31T15:26:23.008Z,101494.50
2022-08-31T15:28:52.629Z,101493.84
2022-08-31T15:31:23.583Z,101490.28
2022-08-31T15:33:55.248Z,101495.31
2022-08-31T15:36:27.022Z,101495.06
2022-08-31T15:38:58.940Z,101493.16
2022-08-31T15:41:29.027Z,101490.84
2022-08-31T15:43:56.995Z,101496.84
2022-08-31T15:46:38.614Z,101491.41
2022-08-31T15:49:07.179Z,101488.28
2022-08-31T15:51:35.398Z,101485.53
2022-08-31T15:54:21.069Z,101489.91
2022-08-31T15:56:49.906Z,101491.78
2022-08-31T15:59:17.852Z,101500.72
2022-08-31T16:01:45.754Z,101487.34
2022-08-31T16:04:16.248Z,101488.78
2022-08-31T16:06:44.513Z,101488.13
2022-08-31T16:09:13.828Z,101478.09
2022-08-31T16:11:42.633Z,101481.81
2022-08-31T16:14:11.953Z,101478.25
2022-08-31T16:16:43.837Z,101481.56
2022-08-31T16:19:27.719Z,101484.69
2022-08-31T16:22:02.938Z,101482.56
2022-08-31T16:24:36.069Z,101485.06
2022-08-31T16:27:08.081Z,101477.94
2022-08-31T16:29:37.018Z,101473.91
2022-08-31T16:32:06.696Z,101470.78
2022-08-31T16:34:34.796Z,101475.97
2022-08-31T16:37:07.279Z,101472.41
2022-08-31T16:39:38.455Z,101475.50
2022-08-31T16:42:07.992Z,101473.00
2022-08-31T16:44:37.254Z,101475.06
2022-08-31T16:47:06.725Z,101476.50
2022-08-31T16:49:34.508Z,101475.00
2022-08-31T16:52:03.461Z,101469.78
2022-08-31T16:54:32.418Z,101475.63
2022-08-31T16:57:02.249Z,101479.34
2022-08-31T16:59:30.902Z,101475.38
2022-08-31T17:01:58.769Z,101486.41
2022-08-31T17:04:51.108Z,101475.13
2022-08-31T17:07:16.866Z,101480.09
2022-08-31T17:09:45.959Z,101482.38
2022-08-31T17:12:21.677Z,101485.47
2022-08-31T17:14:52.761Z,101486.72
2022-08-31T17:17:24.121Z,101491.66
2022-08-31T17:19:54.113Z,101486.81
2022-08-31T17:22:30.050Z,101489.94
2022-08-31T17:25:02.990Z,101496.78
2022-08-31T17:27:34.642Z,101491.94
2022-08-31T17:30:06.098Z,101499.63
2022-08-31T17:32:37.299Z,101497.28
2022-08-31T17:35:08.990Z,101496.81
2022-08-31T17:37:37.090Z,101493.66
2022-08-31T17:40:08.185Z,101499.63
2022-08-31T17:42:37.581Z,101502.75
2022-08-31T17:45:06.696Z,101503.53
2022-08-31T17:47:35.909Z,101505.75
2022-08-31T17:50:04.421Z,101515.28
2022-08-31T17:52:32.475Z,101505.69
2022-08-31T17:55:01.902Z,101506.25
2022-08-31T17:57:29.716Z,101502.28
2022-08-31T17:59:58.996Z,101499.28
2022-08-31T18:02:32.667Z,101506.09
2022-08-31T18:05:00.995Z,101511.25
2022-08-31T18:07:29.374Z,101509.31
2022-08-31T18:09:57.916Z,101510.91
2022-08-31T18:12:27.430Z,101507.91
2022-08-31T18:14:58.021Z,101509.50
2022-08-31T18:17:27.567Z,101509.78
2022-08-31T18:19:55.770Z,101506.97
2022-08-31T18:22:24.504Z,101510.59
2022-08-31T18:24:52.542Z,101512.38
2022-08-31T18:27:21.192Z,101517.88
2022-08-31T18:29:49.041Z,101520.66
2022-08-31T18:32:18.811Z,101524.28
2022-08-31T18:34:52.057Z,101530.63
2022-08-31T18:37:25.902Z,101530.88
2022-08-31T18:40:11.811Z,101527.56
2022-08-31T18:42:57.328Z,101527.81
2022-08-31T18:45:25.575Z,101537.84
2022-08-31T18:50:48.417Z,101542.69
2022-08-31T18:53:29.015Z,101550.19
2022-08-31T18:56:00.806Z,101550.63
2022-08-31T18:58:30.274Z,101551.66
2022-08-31T19:00:59.441Z,101551.03
2022-08-31T19:03:28.403Z,101550.06
2022-08-31T19:05:58.723Z,101548.75
2022-08-31T19:08:27.784Z,101545.06
2022-08-31T19:10:58.166Z,101548.78
2022-08-31T19:13:31.570Z,101546.31
2022-08-31T19:16:02.298Z,101554.41
2022-08-31T19:18:34.495Z,101556.31
2022-08-31T19:21:13.998Z,101554.47
2022-08-31T19:23:43.577Z,101562.56
2022-08-31T19:26:12.032Z,101560.91
2022-08-31T19:28:40.927Z,101563.44
2022-08-31T19:31:11.785Z,101560.91
2022-08-31T19:33:40.024Z,101558.03
2022-08-31T19:36:08.448Z,101562.41
2022-08-31T19:38:40.861Z,101568.63
2022-08-31T19:41:16.041Z,101564.06
2022-08-31T19:43:52.213Z,101570.31
2022-08-31T19:46:26.311Z,101564.88
2022-08-31T19:48:55.059Z,101571.94
2022-08-31T19:51:24.457Z,101570.09
2022-08-31T19:53:55.103Z,101574.59
2022-08-31T19:56:24.929Z,101573.59
2022-08-31T19:58:56.505Z,101574.41
2022-08-31T20:01:28.229Z,101575.22
2022-08-31T20:03:57.506Z,101566.94
2022-08-31T20:06:26.368Z,101570.41
2022-08-31T20:08:56.213Z,101571.06
2022-08-31T20:11:26.496Z,101570.88
2022-08-31T20:13:57.677Z,101568.00
2022-08-31T20:16:33.583Z,101571.16
2022-08-31T20:19:04.717Z,101570.28
2022-08-31T20:21:34.996Z,101578.16
2022-08-31T20:24:08.320Z,101569.00
2022-08-31T20:26:47.472Z,101564.25
2022-08-31T20:29:21.317Z,101565.75
2022-08-31T20:31:51.316Z,101566.38
2022-08-31T20:34:21.948Z,101574.94
2022-08-31T20:36:52.296Z,101571.72
2022-08-31T20:39:23.360Z,101568.47
2022-08-31T20:41:53.063Z,101573.19
2022-08-31T20:44:23.513Z,101569.94
2022-08-31T20:47:12.269Z,101573.81
2022-08-31T20:49:41.790Z,101580.34
2022-08-31T20:52:11.587Z,101582.31
2022-08-31T20:54:42.939Z,101586.03
2022-08-31T20:57:11.726Z,101586.19
2022-08-31T20:59:39.435Z,101581.81
2022-08-31T21:02:08.770Z,101575.59
2022-08-31T21:04:39.169Z,101579.13
2022-08-31T21:07:08.308Z,101573.75
2022-08-31T21:09:36.000Z,101572.75
2022-08-31T21:12:07.092Z,101572.03
2022-08-31T21:14:36.605Z,101580.81
2022-08-31T21:17:06.070Z,101574.72
2022-08-31T21:19:36.118Z,101576.56
2022-08-31T21:22:05.282Z,101569.53
2022-08-31T21:24:36.074Z,101570.66
2022-08-31T21:27:06.751Z,101567.13
2022-08-31T21:29:35.453Z,101568.97
2022-08-31T21:32:05.037Z,101572.78
2022-08-31T21:34:33.037Z,101569.44
2022-08-31T21:37:00.937Z,101585.72
2022-08-31T21:39:28.785Z,101579.63
2022-08-31T21:41:56.549Z,101578.13
2022-08-31T21:44:25.794Z,101583.78
2022-08-31T21:46:53.693Z,101577.72
2022-08-31T21:49:21.789Z,101579.88
2022-08-31T21:51:52.177Z,101582.03
2022-08-31T21:54:22.989Z,101581.31
2022-08-31T21:56:53.581Z,101581.66
2022-08-31T21:59:23.938Z,101577.56
2022-08-31T22:01:59.025Z,101577.72
2022-08-31T22:04:27.128Z,101576.22
2022-08-31T22:06:55.911Z,101580.88
2022-08-31T22:09:24.792Z,101581.19
2022-08-31T22:11:56.393Z,101582.16
2022-08-31T22:14:28.740Z,101583.16
2022-08-31T22:16:59.363Z,101578.97
2022-08-31T22:19:28.466Z,101576.44
2022-08-31T22:21:59.128Z,101574.03
2022-08-31T22:24:29.545Z,101577.88
2022-08-31T22:26:59.333Z,101581.69
2022-08-31T22:29:31.156Z,101582.00
2022-08-31T22:32:03.817Z,101572.41
2022-08-31T22:34:31.531Z,101576.25
2022-08-31T22:36:59.372Z,101573.84
2022-08-31T22:39:29.947Z,101574.84
2022-08-31T22:41:59.176Z,101579.38
2022-08-31T22:44:29.297Z,101582.38
2022-08-31T22:46:57.243Z,101577.00
2022-08-31T22:49:27.031Z,101576.31
2022-08-31T22:51:56.878Z,101574.63
2022-08-31T22:54:26.004Z,101578.31
2022-08-31T22:56:54.708Z,101582.13
2022-08-31T22:59:27.265Z,101572.53
2022-08-31T23:01:59.153Z,101576.22
2022-08-31T23:04:29.169Z,101576.38
2022-08-31T23:06:59.829Z,101577.50
2022-08-31T23:09:30.966Z,101570.47
2022-08-31T23:12:00.850Z,101574.28
2022-08-31T23:14:32.098Z,101570.91
2022-08-31T23:17:01.481Z,101564.84
2022-08-31T23:19:36.518Z,101568.66
2022-08-31T23:22:07.547Z,101568.13
2022-08-31T23:24:41.321Z,101570.13
2022-08-31T23:27:10.381Z,101566.72
2022-08-31T23:29:40.958Z,101554.44
2022-08-31T23:32:11.116Z,101567.00
2022-08-31T23:34:41.923Z,101560.94
2022-08-31T23:37:11.072Z,101558.25
2022-08-31T23:39:43.357Z,101558.56
2022-08-31T23:42:13.056Z,101557.84
2022-08-31T23:44:42.899Z,101558.00
2022-08-31T23:47:13.588Z,101558.16
2022-08-31T23:49:43.892Z,101561.00
2022-08-31T23:52:18.272Z,101558.44
2022-08-31T23:54:46.260Z,101561.13
2022-08-31T23:57:32.103Z,101564.78
